sensor_id;sensor_type;location;lat;lon;timestamp;P1;durP1;ratioP1;P2;durP2;ratioP2
83284;SDS011;73191;50.074;8.488;2024-02-15T00:00:04;9.07;;;5.68;;
83284;SDS011;73191;50.074;8.488;2024-02-15T00:02:34;8.50;;;6.13;;
83284;SDS011;73191;50.074;8.488;2024-02-15T00:05:02;9.38;;;6.10;;
83284;SDS011;73191;50.074;8.488;2024-02-15T00:07:30;7.88;;;5.63;;
83284;SDS011;73191;50.074;8.488;2024-02-15T00:09:59;10.48;;;6.22;;
83284;SDS011;73191;50.074;8.488;2024-02-15T00:12:27;9.05;;;5.90;;
83284;SDS011;73191;50.074;8.488;2024-02-15T00:14:56;9.88;;;6.43;;
83284;SDS011;73191;50.074;8.488;2024-02-15T00:17:25;8.73;;;6.25;;
83284;SDS011;73191;50.074;8.488;2024-02-15T00:19:53;10.88;;;6.40;;
83284;SDS011;73191;50.074;8.488;2024-02-15T00:22:21;11.27;;;6.05;;
83284;SDS011;73191;50.074;8.488;2024-02-15T00:24:49;9.70;;;6.05;;
83284;SDS011;73191;50.074;8.488;2024-02-15T00:27:18;9.65;;;6.43;;
83284;SDS011;73191;50.074;8.488;2024-02-15T00:29:46;9.93;;;6.50;;
83284;SDS011;73191;50.074;8.488;2024-02-15T00:32:14;9.98;;;6.07;;
83284;SDS011;73191;50.074;8.488;2024-02-15T00:34:43;9.05;;;5.72;;
83284;SDS011;73191;50.074;8.488;2024-02-15T00:37:11;9.82;;;5.90;;
83284;SDS011;73191;50.074;8.488;2024-02-15T00:39:39;8.73;;;5.80;;
83284;SDS011;73191;50.074;8.488;2024-02-15T00:42:06;12.40;;;5.95;;
83284;SDS011;73191;50.074;8.488;2024-02-15T00:44:37;9.80;;;6.13;;
83284;SDS011;73191;50.074;8.488;2024-02-15T00:47:04;10.00;;;6.40;;
83284;SDS011;73191;50.074;8.488;2024-02-15T00:49:32;9.02;;;6.45;;
83284;SDS011;73191;50.074;8.488;2024-02-15T00:52:00;11.32;;;6.22;;
83284;SDS011;73191;50.074;8.488;2024-02-15T00:54:28;8.75;;;6.03;;
83284;SDS011;73191;50.074;8.488;2024-02-15T00:56:56;11.32;;;6.22;;
83284;SDS011;73191;50.074;8.488;2024-02-15T00:59:23;9.55;;;6.47;;
83284;SDS011;73191;50.074;8.488;2024-02-15T01:01:52;8.43;;;5.60;;
83284;SDS011;73191;50.074;8.488;2024-02-15T01:04:21;9.55;;;6.20;;
83284;SDS011;73191;50.074;8.488;2024-02-15T01:06:49;10.05;;;6.53;;
83284;SDS011;73191;50.074;8.488;2024-02-15T01:09:17;9.35;;;5.90;;
83284;SDS011;73191;50.074;8.488;2024-02-15T01:11:45;11.10;;;6.50;;
83284;SDS011;73191;50.074;8.488;2024-02-15T01:14:13;9.73;;;6.45;;
83284;SDS011;73191;50.074;8.488;2024-02-15T01:16:41;10.55;;;6.63;;
83284;SDS011;73191;50.074;8.488;2024-02-15T01:19:11;14.35;;;7.10;;
83284;SDS011;73191;50.074;8.488;2024-02-15T01:21:39;11.18;;;6.65;;
83284;SDS011;73191;50.074;8.488;2024-02-15T01:24:06;12.05;;;6.93;;
83284;SDS011;73191;50.074;8.488;2024-02-15T01:26:34;12.07;;;7.10;;
83284;SDS011;73191;50.074;8.488;2024-02-15T01:29:02;10.23;;;7.30;;
83284;SDS011;73191;50.074;8.488;2024-02-15T01:31:30;9.13;;;6.15;;
83284;SDS011;73191;50.074;8.488;2024-02-15T01:33:58;12.68;;;6.30;;
83284;SDS011;73191;50.074;8.488;2024-02-15T01:36:27;11.82;;;7.55;;
83284;SDS011;73191;50.074;8.488;2024-02-15T01:38:55;8.65;;;7.13;;
83284;SDS011;73191;50.074;8.488;2024-02-15T01:41:22;10.13;;;7.22;;
83284;SDS011;73191;50.074;8.488;2024-02-15T01:43:50;9.60;;;6.72;;
83284;SDS011;73191;50.074;8.488;2024-02-15T01:46:18;10.73;;;7.40;;
83284;SDS011;73191;50.074;8.488;2024-02-15T01:48:47;10.30;;;7.15;;
83284;SDS011;73191;50.074;8.488;2024-02-15T01:51:16;9.27;;;6.88;;
83284;SDS011;73191;50.074;8.488;2024-02-15T01:53:45;9.75;;;6.68;;
83284;SDS011;73191;50.074;8.488;2024-02-15T01:56:13;11.73;;;7.60;;
83284;SDS011;73191;50.074;8.488;2024-02-15T01:58:43;9.65;;;6.88;;
83284;SDS011;73191;50.074;8.488;2024-02-15T02:01:12;12.23;;;7.38;;
83284;SDS011;73191;50.074;8.488;2024-02-15T02:03:40;12.68;;;7.32;;
83284;SDS011;73191;50.074;8.488;2024-02-15T02:06:07;15.18;;;7.68;;
83284;SDS011;73191;50.074;8.488;2024-02-15T02:08:35;11.38;;;8.02;;
83284;SDS011;73191;50.074;8.488;2024-02-15T02:11:04;15.68;;;7.55;;
83284;SDS011;73191;50.074;8.488;2024-02-15T02:13:32;14.45;;;8.10;;
83284;SDS011;73191;50.074;8.488;2024-02-15T02:16:01;12.70;;;8.23;;
83284;SDS011;73191;50.074;8.488;2024-02-15T02:18:28;11.93;;;7.78;;
83284;SDS011;73191;50.074;8.488;2024-02-15T02:20:57;12.73;;;7.30;;
83284;SDS011;73191;50.074;8.488;2024-02-15T02:23:26;13.63;;;7.90;;
83284;SDS011;73191;50.074;8.488;2024-02-15T02:25:59;10.38;;;7.15;;
83284;SDS011;73191;50.074;8.488;2024-02-15T02:28:27;9.02;;;6.70;;
83284;SDS011;73191;50.074;8.488;2024-02-15T02:30:55;10.43;;;7.20;;
83284;SDS011;73191;50.074;8.488;2024-02-15T02:33:23;11.40;;;7.82;;
83284;SDS011;73191;50.074;8.488;2024-02-15T02:35:55;11.60;;;7.68;;
83284;SDS011;73191;50.074;8.488;2024-02-15T02:38:24;10.90;;;7.47;;
83284;SDS011;73191;50.074;8.488;2024-02-15T02:40:52;12.60;;;7.00;;
83284;SDS011;73191;50.074;8.488;2024-02-15T02:43:21;11.95;;;7.60;;
83284;SDS011;73191;50.074;8.488;2024-02-15T02:45:49;13.35;;;7.20;;
83284;SDS011;73191;50.074;8.488;2024-02-15T02:48:17;10.57;;;7.07;;
83284;SDS011;73191;50.074;8.488;2024-02-15T02:50:45;12.05;;;6.82;;
83284;SDS011;73191;50.074;8.488;2024-02-15T02:53:13;9.80;;;6.90;;
83284;SDS011;73191;50.074;8.488;2024-02-15T02:55:41;12.00;;;7.55;;
83284;SDS011;73191;50.074;8.488;2024-02-15T02:58:09;11.77;;;7.72;;
83284;SDS011;73191;50.074;8.488;2024-02-15T03:00:38;10.20;;;7.25;;
83284;SDS011;73191;50.074;8.488;2024-02-15T03:03:06;9.75;;;6.38;;
83284;SDS011;73191;50.074;8.488;2024-02-15T03:05:34;10.90;;;7.70;;
83284;SDS011;73191;50.074;8.488;2024-02-15T03:08:02;9.45;;;6.47;;
83284;SDS011;73191;50.074;8.488;2024-02-15T03:10:30;11.70;;;7.05;;
83284;SDS011;73191;50.074;8.488;2024-02-15T03:12:59;12.05;;;7.00;;
83284;SDS011;73191;50.074;8.488;2024-02-15T03:15:27;12.77;;;6.60;;
83284;SDS011;73191;50.074;8.488;2024-02-15T03:17:56;9.85;;;6.20;;
83284;SDS011;73191;50.074;8.488;2024-02-15T03:20:24;10.18;;;6.15;;
83284;SDS011;73191;50.074;8.488;2024-02-15T03:22:52;13.82;;;6.40;;
83284;SDS011;73191;50.074;8.488;2024-02-15T03:25:19;8.90;;;6.38;;
83284;SDS011;73191;50.074;8.488;2024-02-15T03:27:50;10.65;;;6.90;;
83284;SDS011;73191;50.074;8.488;2024-02-15T03:30:19;8.77;;;5.93;;
83284;SDS011;73191;50.074;8.488;2024-02-15T03:32:47;12.75;;;6.43;;
83284;SDS011;73191;50.074;8.488;2024-02-15T03:35:19;10.20;;;6.45;;
83284;SDS011;73191;50.074;8.488;2024-02-15T03:37:49;9.75;;;6.20;;
83284;SDS011;73191;50.074;8.488;2024-02-15T03:40:17;9.98;;;6.53;;
83284;SDS011;73191;50.074;8.488;2024-02-15T03:42:45;12.02;;;6.53;;
83284;SDS011;73191;50.074;8.488;2024-02-15T03:45:14;10.68;;;6.70;;
83284;SDS011;73191;50.074;8.488;2024-02-15T03:47:42;10.68;;;6.95;;
83284;SDS011;73191;50.074;8.488;2024-02-15T03:50:10;13.35;;;6.57;;
83284;SDS011;73191;50.074;8.488;2024-02-15T03:52:42;9.82;;;6.70;;
83284;SDS011;73191;50.074;8.488;2024-02-15T03:55:11;11.50;;;6.90;;
83284;SDS011;73191;50.074;8.488;2024-02-15T03:57:39;11.20;;;6.75;;
83284;SDS011;73191;50.074;8.488;2024-02-15T04:00:07;10.00;;;6.90;;
83284;SDS011;73191;50.074;8.488;2024-02-15T04:02:38;11.80;;;6.90;;
83284;SDS011;73191;50.074;8.488;2024-02-15T04:05:08;13.20;;;6.13;;
83284;SDS011;73191;50.074;8.488;2024-02-15T04:07:39;8.20;;;6.03;;
83284;SDS011;73191;50.074;8.488;2024-02-15T04:10:08;11.55;;;5.78;;
83284;SDS011;73191;50.074;8.488;2024-02-15T04:12:36;9.57;;;6.32;;
83284;SDS011;73191;50.074;8.488;2024-02-15T04:15:04;9.13;;;6.30;;
83284;SDS011;73191;50.074;8.488;2024-02-15T04:17:39;9.65;;;6.45;;
83284;SDS011;73191;50.074;8.488;2024-02-15T04:20:09;8.10;;;5.68;;
83284;SDS011;73191;50.074;8.488;2024-02-15T04:22:38;8.65;;;5.53;;
83284;SDS011;73191;50.074;8.488;2024-02-15T04:25:11;8.73;;;5.88;;
83284;SDS011;73191;50.074;8.488;2024-02-15T04:27:44;9.35;;;5.30;;
83284;SDS011;73191;50.074;8.488;2024-02-15T04:30:12;9.73;;;6.22;;
83284;SDS011;73191;50.074;8.488;2024-02-15T04:32:42;10.65;;;5.63;;
83284;SDS011;73191;50.074;8.488;2024-02-15T04:35:10;10.18;;;6.03;;
83284;SDS011;73191;50.074;8.488;2024-02-15T04:37:40;10.63;;;5.75;;
83284;SDS011;73191;50.074;8.488;2024-02-15T04:40:08;8.75;;;5.85;;
83284;SDS011;73191;50.074;8.488;2024-02-15T04:42:39;12.82;;;6.20;;
83284;SDS011;73191;50.074;8.488;2024-02-15T04:45:08;11.00;;;5.68;;
83284;SDS011;73191;50.074;8.488;2024-02-15T04:47:39;10.30;;;5.80;;
83284;SDS011;73191;50.074;8.488;2024-02-15T04:50:07;8.15;;;5.40;;
83284;SDS011;73191;50.074;8.488;2024-02-15T04:52:35;10.68;;;6.18;;
83284;SDS011;73191;50.074;8.488;2024-02-15T04:55:03;11.63;;;6.00;;
83284;SDS011;73191;50.074;8.488;2024-02-15T04:57:32;8.80;;;5.45;;
83284;SDS011;73191;50.074;8.488;2024-02-15T05:00:04;10.55;;;6.13;;
83284;SDS011;73191;50.074;8.488;2024-02-15T05:02:37;10.13;;;5.82;;
83284;SDS011;73191;50.074;8.488;2024-02-15T05:05:07;9.65;;;6.18;;
83284;SDS011;73191;50.074;8.488;2024-02-15T05:07:34;9.75;;;5.40;;
83284;SDS011;73191;50.074;8.488;2024-02-15T05:10:04;9.32;;;5.18;;
83284;SDS011;73191;50.074;8.488;2024-02-15T05:12:33;10.63;;;5.65;;
83284;SDS011;73191;50.074;8.488;2024-02-15T05:15:00;13.55;;;5.75;;
83284;SDS011;73191;50.074;8.488;2024-02-15T05:17:38;11.57;;;6.13;;
83284;SDS011;73191;50.074;8.488;2024-02-15T05:20:08;12.65;;;5.93;;
83284;SDS011;73191;50.074;8.488;2024-02-15T05:22:40;9.65;;;5.43;;
83284;SDS011;73191;50.074;8.488;2024-02-15T05:25:14;9.50;;;5.60;;
83284;SDS011;73191;50.074;8.488;2024-02-15T05:27:48;9.57;;;5.00;;
83284;SDS011;73191;50.074;8.488;2024-02-15T05:30:16;7.85;;;4.93;;
83284;SDS011;73191;50.074;8.488;2024-02-15T05:32:45;9.68;;;5.40;;
83284;SDS011;73191;50.074;8.488;2024-02-15T05:35:14;10.00;;;5.10;;
83284;SDS011;73191;50.074;8.488;2024-02-15T05:37:43;7.72;;;5.43;;
83284;SDS011;73191;50.074;8.488;2024-02-15T05:40:11;8.35;;;5.45;;
83284;SDS011;73191;50.074;8.488;2024-02-15T05:42:42;9.18;;;4.95;;
83284;SDS011;73191;50.074;8.488;2024-02-15T05:45:27;10.35;;;5.07;;
83284;SDS011;73191;50.074;8.488;2024-02-15T05:48:03;10.15;;;5.25;;
83284;SDS011;73191;50.074;8.488;2024-02-15T05:50:33;9.27;;;4.90;;
83284;SDS011;73191;50.074;8.488;2024-02-15T05:53:01;10.02;;;5.60;;
83284;SDS011;73191;50.074;8.488;2024-02-15T05:55:30;8.25;;;4.90;;
83284;SDS011;73191;50.074;8.488;2024-02-15T05:58:01;7.25;;;5.13;;
83284;SDS011;73191;50.074;8.488;2024-02-15T06:00:29;10.18;;;4.80;;
83284;SDS011;73191;50.074;8.488;2024-02-15T06:02:57;12.15;;;5.22;;
83284;SDS011;73191;50.074;8.488;2024-02-15T06:05:30;9.43;;;4.85;;
83284;SDS011;73191;50.074;8.488;2024-02-15T06:07:58;7.35;;;4.63;;
83284;SDS011;73191;50.074;8.488;2024-02-15T06:10:26;8.73;;;4.88;;
83284;SDS011;73191;50.074;8.488;2024-02-15T06:12:56;9.68;;;4.80;;
83284;SDS011;73191;50.074;8.488;2024-02-15T06:15:23;6.22;;;4.28;;
83284;SDS011;73191;50.074;8.488;2024-02-15T06:17:51;7.05;;;4.43;;
83284;SDS011;73191;50.074;8.488;2024-02-15T06:20:20;10.20;;;4.63;;
83284;SDS011;73191;50.074;8.488;2024-02-15T06:22:50;8.40;;;4.72;;
83284;SDS011;73191;50.074;8.488;2024-02-15T06:25:19;8.02;;;4.25;;
83284;SDS011;73191;50.074;8.488;2024-02-15T06:27:48;9.15;;;4.78;;
83284;SDS011;73191;50.074;8.488;2024-02-15T06:30:19;10.40;;;4.93;;
83284;SDS011;73191;50.074;8.488;2024-02-15T06:35:50;7.97;;;4.55;;
83284;SDS011;73191;50.074;8.488;2024-02-15T06:41:22;7.53;;;4.70;;
83284;SDS011;73191;50.074;8.488;2024-02-15T06:43:52;9.32;;;5.10;;
83284;SDS011;73191;50.074;8.488;2024-02-15T06:46:20;9.73;;;5.07;;
83284;SDS011;73191;50.074;8.488;2024-02-15T06:48:48;12.48;;;5.38;;
83284;SDS011;73191;50.074;8.488;2024-02-15T06:51:15;10.02;;;4.35;;
83284;SDS011;73191;50.074;8.488;2024-02-15T06:53:45;7.82;;;4.45;;
83284;SDS011;73191;50.074;8.488;2024-02-15T06:56:12;8.05;;;4.55;;
83284;SDS011;73191;50.074;8.488;2024-02-15T06:58:40;9.80;;;5.13;;
83284;SDS011;73191;50.074;8.488;2024-02-15T07:01:08;7.65;;;4.72;;
83284;SDS011;73191;50.074;8.488;2024-02-15T07:03:36;8.98;;;4.80;;
83284;SDS011;73191;50.074;8.488;2024-02-15T07:06:05;8.80;;;4.63;;
83284;SDS011;73191;50.074;8.488;2024-02-15T07:08:33;8.00;;;4.93;;
83284;SDS011;73191;50.074;8.488;2024-02-15T07:11:03;8.88;;;5.03;;
83284;SDS011;73191;50.074;8.488;2024-02-15T07:13:31;8.23;;;4.82;;
83284;SDS011;73191;50.074;8.488;2024-02-15T07:15:58;8.75;;;4.57;;
83284;SDS011;73191;50.074;8.488;2024-02-15T07:18:26;8.55;;;4.60;;
83284;SDS011;73191;50.074;8.488;2024-02-15T07:20:55;10.60;;;5.25;;
83284;SDS011;73191;50.074;8.488;2024-02-15T07:23:26;8.85;;;4.28;;
83284;SDS011;73191;50.074;8.488;2024-02-15T07:25:53;10.45;;;5.00;;
83284;SDS011;73191;50.074;8.488;2024-02-15T07:28:23;10.32;;;4.90;;
83284;SDS011;73191;50.074;8.488;2024-02-15T07:30:52;11.07;;;5.55;;
83284;SDS011;73191;50.074;8.488;2024-02-15T07:33:21;7.90;;;4.97;;
83284;SDS011;73191;50.074;8.488;2024-02-15T07:35:50;9.95;;;5.15;;
83284;SDS011;73191;50.074;8.488;2024-02-15T07:38:18;8.25;;;5.15;;
83284;SDS011;73191;50.074;8.488;2024-02-15T07:40:49;8.80;;;4.90;;
83284;SDS011;73191;50.074;8.488;2024-02-15T07:43:16;9.30;;;5.20;;
83284;SDS011;73191;50.074;8.488;2024-02-15T07:45:45;7.80;;;4.88;;
83284;SDS011;73191;50.074;8.488;2024-02-15T07:48:15;9.30;;;4.93;;
83284;SDS011;73191;50.074;8.488;2024-02-15T07:50:44;10.02;;;5.22;;
83284;SDS011;73191;50.074;8.488;2024-02-15T07:53:11;10.05;;;5.13;;
83284;SDS011;73191;50.074;8.488;2024-02-15T07:55:39;12.65;;;5.13;;
83284;SDS011;73191;50.074;8.488;2024-02-15T07:58:08;11.23;;;4.93;;
83284;SDS011;73191;50.074;8.488;2024-02-15T08:00:35;8.18;;;4.95;;
83284;SDS011;73191;50.074;8.488;2024-02-15T08:03:06;8.75;;;4.65;;
83284;SDS011;73191;50.074;8.488;2024-02-15T08:05:34;9.23;;;4.60;;
83284;SDS011;73191;50.074;8.488;2024-02-15T08:08:03;9.73;;;5.07;;
83284;SDS011;73191;50.074;8.488;2024-02-15T08:10:32;10.52;;;5.28;;
83284;SDS011;73191;50.074;8.488;2024-02-15T08:13:00;6.80;;;4.80;;
83284;SDS011;73191;50.074;8.488;2024-02-15T08:15:27;11.10;;;4.88;;
83284;SDS011;73191;50.074;8.488;2024-02-15T08:17:55;8.18;;;5.45;;
83284;SDS011;73191;50.074;8.488;2024-02-15T08:20:25;9.23;;;5.32;;
83284;SDS011;73191;50.074;8.488;2024-02-15T08:22:57;7.88;;;5.03;;
83284;SDS011;73191;50.074;8.488;2024-02-15T08:25:25;6.45;;;4.88;;
83284;SDS011;73191;50.074;8.488;2024-02-15T08:27:53;9.00;;;4.65;;
83284;SDS011;73191;50.074;8.488;2024-02-15T08:30:21;10.63;;;5.50;;
83284;SDS011;73191;50.074;8.488;2024-02-15T08:32:51;9.82;;;4.65;;
83284;SDS011;73191;50.074;8.488;2024-02-15T08:35:21;8.82;;;4.50;;
83284;SDS011;73191;50.074;8.488;2024-02-15T08:37:50;8.20;;;4.60;;
83284;SDS011;73191;50.074;8.488;2024-02-15T08:40:19;7.95;;;4.57;;
83284;SDS011;73191;50.074;8.488;2024-02-15T08:42:52;7.72;;;4.63;;
83284;SDS011;73191;50.074;8.488;2024-02-15T08:45:20;9.25;;;5.03;;
83284;SDS011;73191;50.074;8.488;2024-02-15T08:47:48;7.35;;;4.78;;
83284;SDS011;73191;50.074;8.488;2024-02-15T08:50:19;8.05;;;4.53;;
83284;SDS011;73191;50.074;8.488;2024-02-15T08:52:50;8.10;;;4.72;;
83284;SDS011;73191;50.074;8.488;2024-02-15T08:55:18;7.95;;;5.25;;
83284;SDS011;73191;50.074;8.488;2024-02-15T08:57:50;9.90;;;4.63;;
83284;SDS011;73191;50.074;8.488;2024-02-15T09:00:18;7.43;;;4.72;;
83284;SDS011;73191;50.074;8.488;2024-02-15T09:02:46;6.82;;;4.43;;
83284;SDS011;73191;50.074;8.488;2024-02-15T09:05:15;8.32;;;4.30;;
83284;SDS011;73191;50.074;8.488;2024-02-15T09:07:45;9.48;;;4.40;;
83284;SDS011;73191;50.074;8.488;2024-02-15T09:10:15;5.78;;;3.83;;
83284;SDS011;73191;50.074;8.488;2024-02-15T09:12:44;9.43;;;4.47;;
83284;SDS011;73191;50.074;8.488;2024-02-15T09:15:13;8.95;;;4.53;;
83284;SDS011;73191;50.074;8.488;2024-02-15T09:17:41;6.78;;;3.90;;
83284;SDS011;73191;50.074;8.488;2024-02-15T09:20:10;8.55;;;4.13;;
83284;SDS011;73191;50.074;8.488;2024-02-15T09:22:42;7.07;;;3.75;;
83284;SDS011;73191;50.074;8.488;2024-02-15T09:25:10;9.25;;;4.20;;
83284;SDS011;73191;50.074;8.488;2024-02-15T09:27:40;7.75;;;4.00;;
83284;SDS011;73191;50.074;8.488;2024-02-15T09:30:08;9.85;;;4.72;;
83284;SDS011;73191;50.074;8.488;2024-02-15T09:32:38;5.85;;;4.38;;
83284;SDS011;73191;50.074;8.488;2024-02-15T09:35:06;8.63;;;4.15;;
83284;SDS011;73191;50.074;8.488;2024-02-15T09:37:35;7.80;;;3.97;;
83284;SDS011;73191;50.074;8.488;2024-02-15T09:40:08;7.63;;;4.47;;
83284;SDS011;73191;50.074;8.488;2024-02-15T09:42:37;5.85;;;3.65;;
83284;SDS011;73191;50.074;8.488;2024-02-15T09:45:08;9.82;;;3.92;;
83284;SDS011;73191;50.074;8.488;2024-02-15T09:47:37;7.18;;;4.00;;
83284;SDS011;73191;50.074;8.488;2024-02-15T09:50:07;9.02;;;4.70;;
83284;SDS011;73191;50.074;8.488;2024-02-15T09:52:38;8.25;;;4.32;;
83284;SDS011;73191;50.074;8.488;2024-02-15T09:55:07;12.00;;;4.30;;
83284;SDS011;73191;50.074;8.488;2024-02-15T09:57:39;6.03;;;3.63;;
83284;SDS011;73191;50.074;8.488;2024-02-15T10:00:10;7.35;;;4.00;;
83284;SDS011;73191;50.074;8.488;2024-02-15T10:02:40;6.47;;;3.80;;
83284;SDS011;73191;50.074;8.488;2024-02-15T10:05:08;7.63;;;4.45;;
83284;SDS011;73191;50.074;8.488;2024-02-15T10:07:38;10.30;;;3.97;;
83284;SDS011;73191;50.074;8.488;2024-02-15T10:10:15;4.85;;;3.80;;
83284;SDS011;73191;50.074;8.488;2024-02-15T10:12:45;7.10;;;3.80;;
83284;SDS011;73191;50.074;8.488;2024-02-15T10:15:28;9.40;;;3.40;;
83284;SDS011;73191;50.074;8.488;2024-02-15T10:17:59;8.95;;;4.18;;
83284;SDS011;73191;50.074;8.488;2024-02-15T10:20:29;8.05;;;4.25;;
83284;SDS011;73191;50.074;8.488;2024-02-15T10:25:44;5.30;;;3.13;;
83284;SDS011;73191;50.074;8.488;2024-02-15T10:28:14;8.02;;;3.58;;
83284;SDS011;73191;50.074;8.488;2024-02-15T10:30:43;6.15;;;3.33;;
83284;SDS011;73191;50.074;8.488;2024-02-15T10:33:17;11.57;;;4.18;;
83284;SDS011;73191;50.074;8.488;2024-02-15T10:35:46;5.70;;;3.28;;
83284;SDS011;73191;50.074;8.488;2024-02-15T10:38:14;7.22;;;3.75;;
83284;SDS011;73191;50.074;8.488;2024-02-15T10:40:45;6.10;;;4.07;;
83284;SDS011;73191;50.074;8.488;2024-02-15T10:43:13;9.02;;;3.40;;
83284;SDS011;73191;50.074;8.488;2024-02-15T10:45:44;6.22;;;3.25;;
83284;SDS011;73191;50.074;8.488;2024-02-15T10:48:12;8.63;;;4.03;;
83284;SDS011;73191;50.074;8.488;2024-02-15T10:50:40;5.65;;;3.45;;
83284;SDS011;73191;50.074;8.488;2024-02-15T10:53:11;8.30;;;3.60;;
83284;SDS011;73191;50.074;8.488;2024-02-15T10:55:48;7.57;;;3.47;;
83284;SDS011;73191;50.074;8.488;2024-02-15T10:58:20;5.97;;;3.30;;
83284;SDS011;73191;50.074;8.488;2024-02-15T11:00:54;7.68;;;3.72;;
83284;SDS011;73191;50.074;8.488;2024-02-15T11:03:24;9.68;;;3.70;;
83284;SDS011;73191;50.074;8.488;2024-02-15T11:05:53;6.82;;;3.15;;
83284;SDS011;73191;50.074;8.488;2024-02-15T11:08:22;6.90;;;3.40;;
83284;SDS011;73191;50.074;8.488;2024-02-15T11:10:50;6.53;;;3.45;;
83284;SDS011;73191;50.074;8.488;2024-02-15T11:13:19;8.70;;;3.33;;
83284;SDS011;73191;50.074;8.488;2024-02-15T11:15:47;6.93;;;3.25;;
83284;SDS011;73191;50.074;8.488;2024-02-15T11:21:11;6.82;;;2.97;;
83284;SDS011;73191;50.074;8.488;2024-02-15T11:23:39;5.82;;;3.20;;
83284;SDS011;73191;50.074;8.488;2024-02-15T11:26:08;5.82;;;3.10;;
83284;SDS011;73191;50.074;8.488;2024-02-15T11:28:38;6.45;;;2.80;;
83284;SDS011;73191;50.074;8.488;2024-02-15T11:31:14;5.95;;;2.58;;
83284;SDS011;73191;50.074;8.488;2024-02-15T11:34:43;7.05;;;2.58;;
83284;SDS011;73191;50.074;8.488;2024-02-15T11:40:19;5.57;;;2.80;;
83284;SDS011;73191;50.074;8.488;2024-02-15T11:42:50;8.35;;;2.90;;
83284;SDS011;73191;50.074;8.488;2024-02-15T11:45:19;7.90;;;3.15;;
83284;SDS011;73191;50.074;8.488;2024-02-15T11:47:48;6.43;;;3.15;;
83284;SDS011;73191;50.074;8.488;2024-02-15T11:50:18;6.82;;;2.72;;
83284;SDS011;73191;50.074;8.488;2024-02-15T11:52:47;5.10;;;3.08;;
83284;SDS011;73191;50.074;8.488;2024-02-15T11:55:17;5.80;;;2.88;;
83284;SDS011;73191;50.074;8.488;2024-02-15T11:57:55;7.35;;;2.72;;
83284;SDS011;73191;50.074;8.488;2024-02-15T12:00:29;5.68;;;2.30;;
83284;SDS011;73191;50.074;8.488;2024-02-15T12:03:15;4.75;;;2.47;;
83284;SDS011;73191;50.074;8.488;2024-02-15T12:06:02;4.63;;;2.10;;
83284;SDS011;73191;50.074;8.488;2024-02-15T12:08:49;4.07;;;2.30;;
83284;SDS011;73191;50.074;8.488;2024-02-15T12:11:34;5.47;;;2.40;;
83284;SDS011;73191;50.074;8.488;2024-02-15T12:14:20;5.22;;;2.30;;
83284;SDS011;73191;50.074;8.488;2024-02-15T12:17:06;5.50;;;2.45;;
83284;SDS011;73191;50.074;8.488;2024-02-15T12:19:52;7.32;;;2.42;;
83284;SDS011;73191;50.074;8.488;2024-02-15T12:22:23;4.75;;;2.30;;
83284;SDS011;73191;50.074;8.488;2024-02-15T12:24:53;4.90;;;2.47;;
83284;SDS011;73191;50.074;8.488;2024-02-15T12:27:22;4.20;;;2.10;;
83284;SDS011;73191;50.074;8.488;2024-02-15T12:29:54;6.07;;;2.45;;
83284;SDS011;73191;50.074;8.488;2024-02-15T12:32:22;5.68;;;2.75;;
83284;SDS011;73191;50.074;8.488;2024-02-15T12:34:50;5.93;;;2.10;;
83284;SDS011;73191;50.074;8.488;2024-02-15T12:37:18;5.22;;;2.15;;
83284;SDS011;73191;50.074;8.488;2024-02-15T12:39:49;6.00;;;2.70;;
83284;SDS011;73191;50.074;8.488;2024-02-15T12:42:17;6.35;;;2.17;;
83284;SDS011;73191;50.074;8.488;2024-02-15T12:44:46;6.85;;;2.25;;
83284;SDS011;73191;50.074;8.488;2024-02-15T12:47:21;4.78;;;2.30;;
83284;SDS011;73191;50.074;8.488;2024-02-15T12:49:49;4.50;;;2.15;;
83284;SDS011;73191;50.074;8.488;2024-02-15T12:52:33;4.82;;;2.13;;
83284;SDS011;73191;50.074;8.488;2024-02-15T12:55:14;6.25;;;2.22;;
83284;SDS011;73191;50.074;8.488;2024-02-15T12:57:43;4.10;;;2.15;;
83284;SDS011;73191;50.074;8.488;2024-02-15T13:00:17;5.72;;;3.20;;
83284;SDS011;73191;50.074;8.488;2024-02-15T13:02:47;7.38;;;1.92;;
83284;SDS011;73191;50.074;8.488;2024-02-15T13:05:16;5.82;;;2.28;;
83284;SDS011;73191;50.074;8.488;2024-02-15T13:07:45;7.32;;;2.25;;
83284;SDS011;73191;50.074;8.488;2024-02-15T13:10:15;5.82;;;2.20;;
83284;SDS011;73191;50.074;8.488;2024-02-15T13:12:43;4.22;;;1.83;;
83284;SDS011;73191;50.074;8.488;2024-02-15T13:15:12;5.82;;;2.05;;
83284;SDS011;73191;50.074;8.488;2024-02-15T13:17:43;4.18;;;1.80;;
83284;SDS011;73191;50.074;8.488;2024-02-15T13:20:12;6.32;;;1.80;;
83284;SDS011;73191;50.074;8.488;2024-02-15T13:22:40;3.33;;;1.63;;
83284;SDS011;73191;50.074;8.488;2024-02-15T13:25:10;3.95;;;1.80;;
83284;SDS011;73191;50.074;8.488;2024-02-15T13:27:39;3.95;;;1.63;;
83284;SDS011;73191;50.074;8.488;2024-02-15T13:30:07;7.50;;;1.75;;
83284;SDS011;73191;50.074;8.488;2024-02-15T13:32:36;4.43;;;1.90;;
83284;SDS011;73191;50.074;8.488;2024-02-15T13:35:05;3.58;;;1.52;;
83284;SDS011;73191;50.074;8.488;2024-02-15T13:37:40;5.00;;;1.80;;
83284;SDS011;73191;50.074;8.488;2024-02-15T13:40:10;4.85;;;1.83;;
83284;SDS011;73191;50.074;8.488;2024-02-15T13:42:43;5.60;;;1.85;;
83284;SDS011;73191;50.074;8.488;2024-02-15T13:45:16;8.18;;;1.80;;
83284;SDS011;73191;50.074;8.488;2024-02-15T13:47:44;5.72;;;2.15;;
83284;SDS011;73191;50.074;8.488;2024-02-15T13:50:13;6.35;;;2.28;;
83284;SDS011;73191;50.074;8.488;2024-02-15T13:52:41;5.45;;;1.60;;
83284;SDS011;73191;50.074;8.488;2024-02-15T13:55:11;5.00;;;2.10;;
83284;SDS011;73191;50.074;8.488;2024-02-15T13:57:40;5.95;;;1.95;;
83284;SDS011;73191;50.074;8.488;2024-02-15T14:00:10;6.82;;;1.70;;
83284;SDS011;73191;50.074;8.488;2024-02-15T14:02:48;7.45;;;2.00;;
83284;SDS011;73191;50.074;8.488;2024-02-15T14:05:16;11.30;;;3.55;;
83284;SDS011;73191;50.074;8.488;2024-02-15T14:07:47;3.15;;;1.73;;
83284;SDS011;73191;50.074;8.488;2024-02-15T14:10:16;3.55;;;1.77;;
83284;SDS011;73191;50.074;8.488;2024-02-15T14:12:45;3.63;;;2.00;;
83284;SDS011;73191;50.074;8.488;2024-02-15T14:15:14;5.05;;;1.83;;
83284;SDS011;73191;50.074;8.488;2024-02-15T14:17:43;3.47;;;1.63;;
83284;SDS011;73191;50.074;8.488;2024-02-15T14:20:11;6.60;;;2.05;;
83284;SDS011;73191;50.074;8.488;2024-02-15T14:22:40;6.50;;;2.03;;
83284;SDS011;73191;50.074;8.488;2024-02-15T14:25:10;5.80;;;1.70;;
83284;SDS011;73191;50.074;8.488;2024-02-15T14:27:39;4.13;;;1.52;;
83284;SDS011;73191;50.074;8.488;2024-02-15T14:30:07;5.28;;;1.48;;
83284;SDS011;73191;50.074;8.488;2024-02-15T14:32:54;3.22;;;1.20;;
83284;SDS011;73191;50.074;8.488;2024-02-15T14:35:31;3.05;;;1.63;;
83284;SDS011;73191;50.074;8.488;2024-02-15T14:38:02;9.18;;;2.40;;
83284;SDS011;73191;50.074;8.488;2024-02-15T14:40:32;3.72;;;2.10;;
83284;SDS011;73191;50.074;8.488;2024-02-15T14:43:03;3.45;;;1.83;;
83284;SDS011;73191;50.074;8.488;2024-02-15T14:45:31;7.82;;;1.98;;
83284;SDS011;73191;50.074;8.488;2024-02-15T14:48:03;4.45;;;1.70;;
83284;SDS011;73191;50.074;8.488;2024-02-15T14:50:31;6.07;;;2.20;;
83284;SDS011;73191;50.074;8.488;2024-02-15T14:52:59;8.00;;;1.90;;
83284;SDS011;73191;50.074;8.488;2024-02-15T14:55:27;4.35;;;1.65;;
83284;SDS011;73191;50.074;8.488;2024-02-15T14:57:57;4.10;;;1.65;;
83284;SDS011;73191;50.074;8.488;2024-02-15T15:00:30;4.20;;;1.52;;
83284;SDS011;73191;50.074;8.488;2024-02-15T15:03:05;2.72;;;1.42;;
83284;SDS011;73191;50.074;8.488;2024-02-15T15:05:32;4.93;;;1.85;;
83284;SDS011;73191;50.074;8.488;2024-02-15T15:08:18;7.53;;;1.80;;
83284;SDS011;73191;50.074;8.488;2024-02-15T15:11:03;5.90;;;1.88;;
83284;SDS011;73191;50.074;8.488;2024-02-15T15:13:48;4.50;;;1.73;;